Nashville, NC (27856)

11:46 PM EST on February 11, 2016 (GMT -0500)
Nashville - Birchwood | | Change Station
CLOSE
Current Station
Personal Weather Station
Location: Nashville, NC
Elevation: 223 ft
Nearby Weather Stations
Active Advisory: Winter Weather Advisory

Elev 223 ft 35.96 °N, 77.94 °W | Updated 49 seconds ago

Clear
Clear
27.1 °F
Feels Like 27 °F
N
0.0
Wind Variable Wind from NNW
Gusts 1.0 mph

Today
High -- | Low -- °F
--% Chance of Precip.
Yesterday
High -- | Low -- °F
Precip. -- in
Pressure 30.32 in
Visibility 10.0 miles
Clouds Clear
Windchill 27 °F
Dew Point 15 °F
Humidity 60%
Rainfall 0.00 in
Snow Depth Not available.
7:03 AM 5:48 PM
Waxing Crescent, 17% visible
METAR KRWI 120353Z AUTO 00000KT 10SM CLR M04/M08 A3032 RMK AO2 SLP267 T10391078
Pressure 30.32 in
Visibility 10.0 miles
Clouds Clear
Windchill 27 °F
Dew Point 15 °F
Humidity 60%
Rainfall 0.00 in
Snow Depth Not available.
7:03 AM 5:48 PM
Waxing Crescent, 17% visible
METAR KRWI 120353Z AUTO 00000KT 10SM CLR M04/M08 A3032 RMK AO2 SLP267 T10391078

10-Day Weather Forecast

Almanac

Astronomy

Feb. 11, 2016 Rise Set
Actual Time
Civil Twilight
Nautical Twilight
Astronomical Twilight
Moon
Length of Visible Light
Length of Day
Tomorrow will be .
, % of the Moon is Illuminated

Today's Extremes

State Highs State Lows

Community

WunderPhotos

Upload Photos

1,892,268 photos uploaded!

WunderBlog® & News

Nearby

Air Quality

  Air Quality AQ Index Pollutant
Not available.

Snow Depth

Station Depth Elevation

Earthquake Activity

City Distance Mag. Time & Date
Minimum magnitude displayed is 2.5.

Coastal Water Temperatures

Place Temperature

Stations

Nearby Weather Stations

Station Location Temp. Windchill Dew Point Humidity Wind Precip. Elev Updated Type
                   

Watches & Warnings

Winter Weather Advisory
Issued: 11:09 PM EST Feb. 11, 2016 – National Weather Service

... Winter Weather Advisory remains in effect from 7 am to 7 PM
EST Friday...

* location and timing... portions of the Triangle and northeast
coastal plain from late morning to mid afternoon.

* Hazard type and accumulation... a dusting to one inch of snow
accumulation... primarily along and east of Interstate 95. Snow
may mix with sleet near the Highway 64 corridor.

* Impacts... hazardous travel conditions... especially on bridges
and overpasses.

Precautionary/preparedness actions...

A Winter Weather Advisory means that wintry precipitation is expected
to result in travel difficulties. Be prepared for slippery roads and
use caution while driving.